sensor_id;sensor_type;location;lat;lon;timestamp;P1;durP1;ratioP1;P2;durP2;ratioP2
63089;SDS011;49174;43.198;27.824;2022-10-29T00:01:53;15.45;;;11.85;;
63089;SDS011;49174;43.198;27.824;2022-10-29T00:04:19;14.95;;;10.80;;
63089;SDS011;49174;43.198;27.824;2022-10-29T00:06:46;14.50;;;10.98;;
63089;SDS011;49174;43.198;27.824;2022-10-29T00:09:12;17.05;;;12.07;;
63089;SDS011;49174;43.198;27.824;2022-10-29T00:11:38;15.15;;;12.63;;
63089;SDS011;49174;43.198;27.824;2022-10-29T00:14:03;14.68;;;11.25;;
63089;SDS011;49174;43.198;27.824;2022-10-29T00:16:33;14.02;;;11.15;;
63089;SDS011;49174;43.198;27.824;2022-10-29T00:19:01;13.45;;;11.07;;
63089;SDS011;49174;43.198;27.824;2022-10-29T00:21:28;15.32;;;11.85;;
63089;SDS011;49174;43.198;27.824;2022-10-29T00:23:55;15.50;;;11.88;;
63089;SDS011;49174;43.198;27.824;2022-10-29T00:26:21;14.30;;;11.63;;
63089;SDS011;49174;43.198;27.824;2022-10-29T00:28:50;14.20;;;11.10;;
63089;SDS011;49174;43.198;27.824;2022-10-29T00:31:17;14.90;;;11.40;;
63089;SDS011;49174;43.198;27.824;2022-10-29T00:33:44;15.70;;;11.98;;
63089;SDS011;49174;43.198;27.824;2022-10-29T00:36:31;15.98;;;11.68;;
63089;SDS011;49174;43.198;27.824;2022-10-29T00:38:55;15.45;;;11.95;;
63089;SDS011;49174;43.198;27.824;2022-10-29T00:41:22;15.02;;;12.25;;
63089;SDS011;49174;43.198;27.824;2022-10-29T00:46:51;19.83;;;15.18;;
63089;SDS011;49174;43.198;27.824;2022-10-29T00:49:22;21.48;;;15.57;;
63089;SDS011;49174;43.198;27.824;2022-10-29T00:51:49;22.50;;;15.57;;
63089;SDS011;49174;43.198;27.824;2022-10-29T00:54:15;20.10;;;16.52;;
63089;SDS011;49174;43.198;27.824;2022-10-29T00:56:51;22.63;;;16.38;;
63089;SDS011;49174;43.198;27.824;2022-10-29T00:59:20;25.20;;;18.58;;
63089;SDS011;49174;43.198;27.824;2022-10-29T01:01:46;24.15;;;17.25;;
63089;SDS011;49174;43.198;27.824;2022-10-29T01:04:13;26.58;;;18.67;;
63089;SDS011;49174;43.198;27.824;2022-10-29T01:06:40;24.77;;;18.70;;
63089;SDS011;49174;43.198;27.824;2022-10-29T01:09:07;23.88;;;18.08;;
63089;SDS011;49174;43.198;27.824;2022-10-29T01:23:11;29.15;;;20.23;;
63089;SDS011;49174;43.198;27.824;2022-10-29T01:33:59;36.65;;;22.50;;
63089;SDS011;49174;43.198;27.824;2022-10-29T01:36:32;33.97;;;23.48;;
63089;SDS011;49174;43.198;27.824;2022-10-29T01:42:02;33.40;;;24.52;;
63089;SDS011;49174;43.198;27.824;2022-10-29T01:44:37;33.75;;;23.88;;
63089;SDS011;49174;43.198;27.824;2022-10-29T01:47:18;33.47;;;23.95;;
63089;SDS011;49174;43.198;27.824;2022-10-29T01:49:49;31.23;;;23.85;;
63089;SDS011;49174;43.198;27.824;2022-10-29T01:52:18;36.03;;;27.55;;
63089;SDS011;49174;43.198;27.824;2022-10-29T01:54:47;35.15;;;25.17;;
63089;SDS011;49174;43.198;27.824;2022-10-29T01:57:27;32.60;;;26.05;;
63089;SDS011;49174;43.198;27.824;2022-10-29T01:59:55;36.47;;;26.67;;
63089;SDS011;49174;43.198;27.824;2022-10-29T02:05:25;50.67;;;31.25;;
63089;SDS011;49174;43.198;27.824;2022-10-29T02:08:01;44.75;;;30.80;;
63089;SDS011;49174;43.198;27.824;2022-10-29T02:13:33;39.40;;;29.47;;
63089;SDS011;49174;43.198;27.824;2022-10-29T02:16:04;46.55;;;27.13;;
63089;SDS011;49174;43.198;27.824;2022-10-29T02:18:39;43.47;;;26.27;;
63089;SDS011;49174;43.198;27.824;2022-10-29T02:21:06;40.05;;;25.90;;
63089;SDS011;49174;43.198;27.824;2022-10-29T02:23:31;41.30;;;25.83;;
63089;SDS011;49174;43.198;27.824;2022-10-29T02:25:57;40.00;;;25.65;;
63089;SDS011;49174;43.198;27.824;2022-10-29T02:28:22;38.75;;;26.98;;
63089;SDS011;49174;43.198;27.824;2022-10-29T02:30:49;90.18;;;30.00;;
63089;SDS011;49174;43.198;27.824;2022-10-29T02:33:15;62.85;;;33.85;;
63089;SDS011;49174;43.198;27.824;2022-10-29T02:35:41;48.30;;;34.22;;
63089;SDS011;49174;43.198;27.824;2022-10-29T02:38:06;76.38;;;42.08;;
63089;SDS011;49174;43.198;27.824;2022-10-29T02:40:32;93.05;;;51.20;;
63089;SDS011;49174;43.198;27.824;2022-10-29T02:42:57;102.40;;;50.85;;
63089;SDS011;49174;43.198;27.824;2022-10-29T02:45:23;74.90;;;50.50;;
63089;SDS011;49174;43.198;27.824;2022-10-29T02:47:48;157.65;;;48.22;;
63089;SDS011;49174;43.198;27.824;2022-10-29T02:50:14;132.40;;;44.20;;
63089;SDS011;49174;43.198;27.824;2022-10-29T02:52:40;79.20;;;42.38;;
63089;SDS011;49174;43.198;27.824;2022-10-29T02:55:05;63.13;;;42.22;;
63089;SDS011;49174;43.198;27.824;2022-10-29T02:57:31;75.50;;;41.13;;
63089;SDS011;49174;43.198;27.824;2022-10-29T02:59:57;72.38;;;47.92;;
63089;SDS011;49174;43.198;27.824;2022-10-29T03:02:22;168.40;;;51.70;;
63089;SDS011;49174;43.198;27.824;2022-10-29T03:04:48;78.30;;;48.78;;
63089;SDS011;49174;43.198;27.824;2022-10-29T03:07:13;74.90;;;48.78;;
63089;SDS011;49174;43.198;27.824;2022-10-29T03:09:39;67.70;;;46.10;;
63089;SDS011;49174;43.198;27.824;2022-10-29T03:12:04;101.43;;;45.55;;
63089;SDS011;49174;43.198;27.824;2022-10-29T03:14:30;68.32;;;44.70;;
63089;SDS011;49174;43.198;27.824;2022-10-29T03:16:56;77.68;;;41.72;;
63089;SDS011;49174;43.198;27.824;2022-10-29T03:19:21;69.00;;;44.00;;
63089;SDS011;49174;43.198;27.824;2022-10-29T03:21:47;65.10;;;42.53;;
63089;SDS011;49174;43.198;27.824;2022-10-29T03:24:12;70.55;;;46.40;;
63089;SDS011;49174;43.198;27.824;2022-10-29T03:26:38;66.30;;;46.72;;
63089;SDS011;49174;43.198;27.824;2022-10-29T03:29:03;78.15;;;50.35;;
63089;SDS011;49174;43.198;27.824;2022-10-29T03:31:29;84.63;;;52.85;;
63089;SDS011;49174;43.198;27.824;2022-10-29T03:33:54;83.65;;;54.95;;
63089;SDS011;49174;43.198;27.824;2022-10-29T03:36:20;108.13;;;61.92;;
63089;SDS011;49174;43.198;27.824;2022-10-29T03:38:46;110.18;;;65.05;;
63089;SDS011;49174;43.198;27.824;2022-10-29T03:41:11;157.45;;;75.70;;
63089;SDS011;49174;43.198;27.824;2022-10-29T03:43:37;150.20;;;84.10;;
63089;SDS011;49174;43.198;27.824;2022-10-29T03:46:03;255.40;;;103.03;;
63089;SDS011;49174;43.198;27.824;2022-10-29T03:48:29;190.32;;;106.95;;
63089;SDS011;49174;43.198;27.824;2022-10-29T03:50:55;239.45;;;115.63;;
63089;SDS011;49174;43.198;27.824;2022-10-29T03:53:22;305.38;;;125.32;;
63089;SDS011;49174;43.198;27.824;2022-10-29T03:55:52;226.88;;;126.60;;
63089;SDS011;49174;43.198;27.824;2022-10-29T03:58:18;307.63;;;132.27;;
63089;SDS011;49174;43.198;27.824;2022-10-29T04:00:52;266.63;;;129.80;;
63089;SDS011;49174;43.198;27.824;2022-10-29T04:03:21;232.85;;;126.28;;
63089;SDS011;49174;43.198;27.824;2022-10-29T04:05:47;228.02;;;118.95;;
63089;SDS011;49174;43.198;27.824;2022-10-29T04:08:12;226.65;;;103.25;;
63089;SDS011;49174;43.198;27.824;2022-10-29T04:10:42;155.27;;;93.53;;
63089;SDS011;49174;43.198;27.824;2022-10-29T04:13:08;143.48;;;91.20;;
63089;SDS011;49174;43.198;27.824;2022-10-29T04:15:33;141.90;;;79.68;;
63089;SDS011;49174;43.198;27.824;2022-10-29T04:17:59;118.35;;;78.63;;
63089;SDS011;49174;43.198;27.824;2022-10-29T04:20:24;130.02;;;80.32;;
63089;SDS011;49174;43.198;27.824;2022-10-29T04:22:50;140.90;;;78.15;;
63089;SDS011;49174;43.198;27.824;2022-10-29T04:25:16;132.02;;;83.45;;
63089;SDS011;49174;43.198;27.824;2022-10-29T04:27:41;121.85;;;75.43;;
63089;SDS011;49174;43.198;27.824;2022-10-29T04:30:07;119.35;;;71.90;;
63089;SDS011;49174;43.198;27.824;2022-10-29T04:32:33;118.57;;;73.90;;
63089;SDS011;49174;43.198;27.824;2022-10-29T04:34:58;110.97;;;75.78;;
63089;SDS011;49174;43.198;27.824;2022-10-29T04:37:24;138.32;;;64.25;;
63089;SDS011;49174;43.198;27.824;2022-10-29T04:39:52;104.22;;;67.65;;
63089;SDS011;49174;43.198;27.824;2022-10-29T04:42:18;104.60;;;64.88;;
63089;SDS011;49174;43.198;27.824;2022-10-29T04:44:43;103.70;;;67.28;;
63089;SDS011;49174;43.198;27.824;2022-10-29T04:47:09;97.60;;;67.95;;
63089;SDS011;49174;43.198;27.824;2022-10-29T04:49:34;92.80;;;65.10;;
63089;SDS011;49174;43.198;27.824;2022-10-29T04:52:00;88.60;;;63.58;;
63089;SDS011;49174;43.198;27.824;2022-10-29T04:54:25;87.30;;;61.22;;
63089;SDS011;49174;43.198;27.824;2022-10-29T04:56:51;106.65;;;61.70;;
63089;SDS011;49174;43.198;27.824;2022-10-29T04:59:17;89.10;;;60.78;;
63089;SDS011;49174;43.198;27.824;2022-10-29T05:01:42;98.03;;;59.22;;
63089;SDS011;49174;43.198;27.824;2022-10-29T05:04:10;85.65;;;58.95;;
63089;SDS011;49174;43.198;27.824;2022-10-29T05:06:36;80.03;;;58.40;;
63089;SDS011;49174;43.198;27.824;2022-10-29T05:09:01;81.13;;;56.35;;
63089;SDS011;49174;43.198;27.824;2022-10-29T05:11:27;78.10;;;55.25;;
63089;SDS011;49174;43.198;27.824;2022-10-29T05:13:52;71.45;;;54.60;;
63089;SDS011;49174;43.198;27.824;2022-10-29T05:16:18;69.72;;;49.28;;
63089;SDS011;49174;43.198;27.824;2022-10-29T05:18:43;63.72;;;46.78;;
63089;SDS011;49174;43.198;27.824;2022-10-29T05:21:09;58.03;;;44.85;;
63089;SDS011;49174;43.198;27.824;2022-10-29T05:23:34;63.10;;;42.75;;
63089;SDS011;49174;43.198;27.824;2022-10-29T05:26:00;63.97;;;43.55;;
63089;SDS011;49174;43.198;27.824;2022-10-29T05:28:25;59.83;;;40.60;;
63089;SDS011;49174;43.198;27.824;2022-10-29T05:30:51;60.50;;;42.97;;
63089;SDS011;49174;43.198;27.824;2022-10-29T05:33:18;53.03;;;39.38;;
63089;SDS011;49174;43.198;27.824;2022-10-29T05:35:46;57.10;;;40.30;;
63089;SDS011;49174;43.198;27.824;2022-10-29T05:38:12;61.83;;;43.72;;
63089;SDS011;49174;43.198;27.824;2022-10-29T05:40:38;63.00;;;45.83;;
63089;SDS011;49174;43.198;27.824;2022-10-29T05:43:04;62.60;;;46.85;;
63089;SDS011;49174;43.198;27.824;2022-10-29T05:45:30;65.68;;;48.35;;
63089;SDS011;49174;43.198;27.824;2022-10-29T05:47:58;68.53;;;48.83;;
63089;SDS011;49174;43.198;27.824;2022-10-29T05:53:08;64.32;;;46.00;;
63089;SDS011;49174;43.198;27.824;2022-10-29T05:55:36;64.70;;;47.97;;
63089;SDS011;49174;43.198;27.824;2022-10-29T05:58:04;65.53;;;47.13;;
63089;SDS011;49174;43.198;27.824;2022-10-29T06:00:33;50.80;;;41.00;;
63089;SDS011;49174;43.198;27.824;2022-10-29T06:03:00;50.75;;;37.58;;
63089;SDS011;49174;43.198;27.824;2022-10-29T06:05:26;51.28;;;40.10;;
63089;SDS011;49174;43.198;27.824;2022-10-29T06:07:52;49.50;;;39.28;;
63089;SDS011;49174;43.198;27.824;2022-10-29T06:10:19;47.85;;;40.03;;
63089;SDS011;49174;43.198;27.824;2022-10-29T06:12:45;52.60;;;38.03;;
63089;SDS011;49174;43.198;27.824;2022-10-29T06:15:11;55.28;;;38.28;;
63089;SDS011;49174;43.198;27.824;2022-10-29T07:13:42;53.00;;;37.45;;
63089;SDS011;49174;43.198;27.824;2022-10-29T07:58:15;56.08;;;37.80;;
63089;SDS011;49174;43.198;27.824;2022-10-29T08:00:41;65.97;;;37.03;;
63089;SDS011;49174;43.198;27.824;2022-10-29T08:26:14;42.80;;;26.10;;
63089;SDS011;49174;43.198;27.824;2022-10-29T08:31:24;33.53;;;20.92;;
63089;SDS011;49174;43.198;27.824;2022-10-29T08:33:51;37.28;;;21.40;;
63089;SDS011;49174;43.198;27.824;2022-10-29T08:36:17;34.42;;;20.48;;
63089;SDS011;49174;43.198;27.824;2022-10-29T08:38:42;33.72;;;19.85;;
63089;SDS011;49174;43.198;27.824;2022-10-29T08:44:17;43.22;;;25.13;;
63089;SDS011;49174;43.198;27.824;2022-10-29T08:47:14;42.95;;;25.80;;
63089;SDS011;49174;43.198;27.824;2022-10-29T08:52:28;39.63;;;25.92;;
63089;SDS011;49174;43.198;27.824;2022-10-29T08:57:23;37.42;;;20.90;;
63089;SDS011;49174;43.198;27.824;2022-10-29T09:14:16;33.00;;;20.02;;
63089;SDS011;49174;43.198;27.824;2022-10-29T09:22:18;28.73;;;18.85;;
63089;SDS011;49174;43.198;27.824;2022-10-29T09:24:56;32.55;;;19.10;;
63089;SDS011;49174;43.198;27.824;2022-10-29T09:27:23;29.88;;;18.48;;
63089;SDS011;49174;43.198;27.824;2022-10-29T09:32:46;25.33;;;17.40;;
63089;SDS011;49174;43.198;27.824;2022-10-29T09:35:16;26.30;;;17.90;;
63089;SDS011;49174;43.198;27.824;2022-10-29T09:37:55;31.05;;;20.13;;
63089;SDS011;49174;43.198;27.824;2022-10-29T09:40:31;24.75;;;16.77;;
63089;SDS011;49174;43.198;27.824;2022-10-29T09:43:00;27.33;;;18.23;;
63089;SDS011;49174;43.198;27.824;2022-10-29T09:48:19;19.60;;;14.15;;
63089;SDS011;49174;43.198;27.824;2022-10-29T09:53:34;21.83;;;14.18;;
63089;SDS011;49174;43.198;27.824;2022-10-29T09:56:00;17.92;;;11.90;;
63089;SDS011;49174;43.198;27.824;2022-10-29T09:58:26;19.85;;;13.60;;
63089;SDS011;49174;43.198;27.824;2022-10-29T10:00:53;15.93;;;11.77;;
63089;SDS011;49174;43.198;27.824;2022-10-29T10:03:29;18.42;;;11.57;;
63089;SDS011;49174;43.198;27.824;2022-10-29T10:06:03;21.80;;;12.50;;
63089;SDS011;49174;43.198;27.824;2022-10-29T10:08:31;15.75;;;10.80;;
63089;SDS011;49174;43.198;27.824;2022-10-29T10:11:01;21.90;;;13.07;;
63089;SDS011;49174;43.198;27.824;2022-10-29T10:13:32;53.72;;;32.38;;
63089;SDS011;49174;43.198;27.824;2022-10-29T10:16:01;14.93;;;10.60;;
63089;SDS011;49174;43.198;27.824;2022-10-29T10:23:32;9.05;;;4.93;;
63089;SDS011;49174;43.198;27.824;2022-10-29T10:26:25;5.93;;;4.10;;
63089;SDS011;49174;43.198;27.824;2022-10-29T10:31:49;7.20;;;5.10;;
63089;SDS011;49174;43.198;27.824;2022-10-29T10:39:30;9.50;;;6.85;;
63089;SDS011;49174;43.198;27.824;2022-10-29T10:42:01;11.40;;;7.00;;
63089;SDS011;49174;43.198;27.824;2022-10-29T10:44:30;13.10;;;8.02;;
63089;SDS011;49174;43.198;27.824;2022-10-29T10:46:58;12.10;;;7.70;;
63089;SDS011;49174;43.198;27.824;2022-10-29T10:49:31;11.80;;;7.90;;
63089;SDS011;49174;43.198;27.824;2022-10-29T10:52:01;9.32;;;7.32;;
63089;SDS011;49174;43.198;27.824;2022-10-29T10:56:59;9.88;;;6.00;;
63089;SDS011;49174;43.198;27.824;2022-10-29T10:59:43;9.45;;;5.32;;
63089;SDS011;49174;43.198;27.824;2022-10-29T11:02:42;9.70;;;5.35;;
63089;SDS011;49174;43.198;27.824;2022-10-29T11:08:19;7.35;;;4.93;;
63089;SDS011;49174;43.198;27.824;2022-10-29T11:11:07;9.70;;;5.35;;
63089;SDS011;49174;43.198;27.824;2022-10-29T11:13:43;7.00;;;4.75;;
63089;SDS011;49174;43.198;27.824;2022-10-29T11:19:51;6.47;;;3.85;;
63089;SDS011;49174;43.198;27.824;2022-10-29T11:24:34;14.23;;;8.30;;
63089;SDS011;49174;43.198;27.824;2022-10-29T11:35:35;7.10;;;4.13;;
63089;SDS011;49174;43.198;27.824;2022-10-29T11:43:22;5.05;;;3.25;;
63089;SDS011;49174;43.198;27.824;2022-10-29T11:59:22;4.80;;;2.40;;
63089;SDS011;49174;43.198;27.824;2022-10-29T12:13:12;4.32;;;2.88;;
63089;SDS011;49174;43.198;27.824;2022-10-29T12:19:11;6.20;;;2.67;;
63089;SDS011;49174;43.198;27.824;2022-10-29T12:29:18;3.90;;;2.70;;
63089;SDS011;49174;43.198;27.824;2022-10-29T12:32:12;5.30;;;2.70;;
63089;SDS011;49174;43.198;27.824;2022-10-29T12:40:20;3.90;;;2.30;;
63089;SDS011;49174;43.198;27.824;2022-10-29T12:42:48;4.38;;;2.15;;
63089;SDS011;49174;43.198;27.824;2022-10-29T12:45:35;4.05;;;2.85;;
63089;SDS011;49174;43.198;27.824;2022-10-29T12:53:16;3.03;;;2.33;;
63089;SDS011;49174;43.198;27.824;2022-10-29T12:55:45;3.47;;;2.13;;
63089;SDS011;49174;43.198;27.824;2022-10-29T13:02:16;3.38;;;2.40;;
63089;SDS011;49174;43.198;27.824;2022-10-29T13:04:20;3.67;;;2.17;;
63089;SDS011;49174;43.198;27.824;2022-10-29T13:09:26;2.90;;;2.10;;
63089;SDS011;49174;43.198;27.824;2022-10-29T13:11:58;4.05;;;2.55;;
63089;SDS011;49174;43.198;27.824;2022-10-29T13:14:43;4.05;;;2.22;;
63089;SDS011;49174;43.198;27.824;2022-10-29T13:17:23;2.72;;;2.03;;
63089;SDS011;49174;43.198;27.824;2022-10-29T13:28:43;4.57;;;2.22;;
63089;SDS011;49174;43.198;27.824;2022-10-29T13:30:49;5.43;;;2.30;;
63089;SDS011;49174;43.198;27.824;2022-10-29T13:41:13;3.10;;;2.13;;
63089;SDS011;49174;43.198;27.824;2022-10-29T13:43:57;3.53;;;2.38;;
63089;SDS011;49174;43.198;27.824;2022-10-29T13:46:28;4.40;;;2.08;;
63089;SDS011;49174;43.198;27.824;2022-10-29T14:02:47;3.75;;;2.00;;
63089;SDS011;49174;43.198;27.824;2022-10-29T14:08:10;2.95;;;1.95;;
63089;SDS011;49174;43.198;27.824;2022-10-29T14:10:52;3.97;;;2.00;;
63089;SDS011;49174;43.198;27.824;2022-10-29T14:16:14;2.30;;;1.75;;
63089;SDS011;49174;43.198;27.824;2022-10-29T14:18:48;3.90;;;2.03;;
63089;SDS011;49174;43.198;27.824;2022-10-29T14:21:16;3.75;;;1.90;;
63089;SDS011;49174;43.198;27.824;2022-10-29T14:26:19;4.18;;;1.90;;
63089;SDS011;49174;43.198;27.824;2022-10-29T14:28:45;4.78;;;2.08;;
63089;SDS011;49174;43.198;27.824;2022-10-29T14:31:11;4.28;;;2.05;;
63089;SDS011;49174;43.198;27.824;2022-10-29T14:34:20;4.20;;;2.13;;
63089;SDS011;49174;43.198;27.824;2022-10-29T14:36:45;3.10;;;2.10;;
63089;SDS011;49174;43.198;27.824;2022-10-29T14:41:45;3.83;;;2.17;;
63089;SDS011;49174;43.198;27.824;2022-10-29T14:44:17;3.22;;;2.08;;
63089;SDS011;49174;43.198;27.824;2022-10-29T14:49:28;4.20;;;2.30;;
63089;SDS011;49174;43.198;27.824;2022-10-29T14:52:05;2.67;;;2.28;;
63089;SDS011;49174;43.198;27.824;2022-10-29T14:54:40;8.50;;;4.80;;
63089;SDS011;49174;43.198;27.824;2022-10-29T14:57:12;7.03;;;3.40;;
63089;SDS011;49174;43.198;27.824;2022-10-29T14:59:44;10.25;;;2.35;;
63089;SDS011;49174;43.198;27.824;2022-10-29T15:02:35;3.22;;;1.92;;
63089;SDS011;49174;43.198;27.824;2022-10-29T15:05:26;6.22;;;2.42;;
63089;SDS011;49174;43.198;27.824;2022-10-29T15:08:02;3.05;;;2.03;;
63089;SDS011;49174;43.198;27.824;2022-10-29T15:10:54;5.35;;;2.17;;
63089;SDS011;49174;43.198;27.824;2022-10-29T15:16:00;7.28;;;2.67;;
63089;SDS011;49174;43.198;27.824;2022-10-29T15:18:32;6.22;;;2.28;;
63089;SDS011;49174;43.198;27.824;2022-10-29T15:20:59;5.55;;;2.65;;
63089;SDS011;49174;43.198;27.824;2022-10-29T15:23:29;4.05;;;2.05;;
63089;SDS011;49174;43.198;27.824;2022-10-29T15:28:29;6.50;;;2.97;;
63089;SDS011;49174;43.198;27.824;2022-10-29T15:31:01;3.65;;;2.08;;
63089;SDS011;49174;43.198;27.824;2022-10-29T15:33:28;4.25;;;2.40;;
63089;SDS011;49174;43.198;27.824;2022-10-29T15:35:56;3.60;;;2.50;;
63089;SDS011;49174;43.198;27.824;2022-10-29T15:43:47;4.75;;;2.78;;
63089;SDS011;49174;43.198;27.824;2022-10-29T15:46:26;3.70;;;2.63;;
63089;SDS011;49174;43.198;27.824;2022-10-29T15:51:28;5.28;;;3.75;;
63089;SDS011;49174;43.198;27.824;2022-10-29T15:53:55;6.95;;;4.45;;
63089;SDS011;49174;43.198;27.824;2022-10-29T15:56:23;6.72;;;3.58;;
63089;SDS011;49174;43.198;27.824;2022-10-29T15:58:49;7.70;;;4.25;;
63089;SDS011;49174;43.198;27.824;2022-10-29T16:01:15;7.53;;;4.05;;
63089;SDS011;49174;43.198;27.824;2022-10-29T16:03:41;8.32;;;4.40;;
63089;SDS011;49174;43.198;27.824;2022-10-29T16:06:07;9.23;;;3.65;;
63089;SDS011;49174;43.198;27.824;2022-10-29T16:08:47;7.22;;;3.72;;
63089;SDS011;49174;43.198;27.824;2022-10-29T16:11:17;6.05;;;3.47;;
63089;SDS011;49174;43.198;27.824;2022-10-29T16:13:45;7.35;;;4.43;;
63089;SDS011;49174;43.198;27.824;2022-10-29T16:16:11;6.97;;;3.50;;
63089;SDS011;49174;43.198;27.824;2022-10-29T16:18:38;9.90;;;3.78;;
63089;SDS011;49174;43.198;27.824;2022-10-29T16:21:04;4.53;;;2.97;;
63089;SDS011;49174;43.198;27.824;2022-10-29T16:23:31;5.53;;;4.00;;
63089;SDS011;49174;43.198;27.824;2022-10-29T16:26:00;6.88;;;3.90;;
63089;SDS011;49174;43.198;27.824;2022-10-29T16:28:26;8.07;;;4.15;;
63089;SDS011;49174;43.198;27.824;2022-10-29T16:30:52;6.18;;;4.07;;
63089;SDS011;49174;43.198;27.824;2022-10-29T16:33:19;8.52;;;4.85;;
63089;SDS011;49174;43.198;27.824;2022-10-29T16:35:45;6.13;;;4.70;;
63089;SDS011;49174;43.198;27.824;2022-10-29T16:38:11;5.70;;;4.18;;
63089;SDS011;49174;43.198;27.824;2022-10-29T16:40:36;8.65;;;4.93;;
63089;SDS011;49174;43.198;27.824;2022-10-29T16:43:02;8.20;;;4.82;;
63089;SDS011;49174;43.198;27.824;2022-10-29T16:45:28;6.50;;;4.55;;
63089;SDS011;49174;43.198;27.824;2022-10-29T16:47:55;8.52;;;4.85;;
63089;SDS011;49174;43.198;27.824;2022-10-29T16:50:22;6.28;;;4.95;;
63089;SDS011;49174;43.198;27.824;2022-10-29T16:53:00;7.80;;;4.95;;
63089;SDS011;49174;43.198;27.824;2022-10-29T16:55:28;6.63;;;4.95;;
63089;SDS011;49174;43.198;27.824;2022-10-29T16:57:54;6.32;;;4.88;;
63089;SDS011;49174;43.198;27.824;2022-10-29T17:00:20;9.13;;;5.90;;
63089;SDS011;49174;43.198;27.824;2022-10-29T17:02:46;8.73;;;5.30;;
63089;SDS011;49174;43.198;27.824;2022-10-29T17:05:12;7.43;;;6.10;;
63089;SDS011;49174;43.198;27.824;2022-10-29T17:07:39;9.10;;;6.60;;
63089;SDS011;49174;43.198;27.824;2022-10-29T17:10:04;7.78;;;5.55;;
63089;SDS011;49174;43.198;27.824;2022-10-29T17:12:31;7.22;;;6.18;;
63089;SDS011;49174;43.198;27.824;2022-10-29T17:14:57;7.15;;;6.07;;
63089;SDS011;49174;43.198;27.824;2022-10-29T17:17:23;9.43;;;6.45;;
63089;SDS011;49174;43.198;27.824;2022-10-29T17:19:48;8.73;;;6.70;;
63089;SDS011;49174;43.198;27.824;2022-10-29T17:22:14;11.98;;;7.53;;
63089;SDS011;49174;43.198;27.824;2022-10-29T17:24:43;10.65;;;7.93;;
63089;SDS011;49174;43.198;27.824;2022-10-29T17:27:10;9.10;;;7.43;;
63089;SDS011;49174;43.198;27.824;2022-10-29T17:29:36;11.05;;;8.80;;
63089;SDS011;49174;43.198;27.824;2022-10-29T17:32:03;10.43;;;8.88;;
63089;SDS011;49174;43.198;27.824;2022-10-29T17:34:30;13.50;;;8.93;;
63089;SDS011;49174;43.198;27.824;2022-10-29T17:36:55;12.00;;;9.20;;
63089;SDS011;49174;43.198;27.824;2022-10-29T17:39:21;12.82;;;9.27;;
63089;SDS011;49174;43.198;27.824;2022-10-29T17:41:47;11.55;;;8.57;;
63089;SDS011;49174;43.198;27.824;2022-10-29T17:44:13;15.20;;;9.88;;
63089;SDS011;49174;43.198;27.824;2022-10-29T17:46:39;13.52;;;10.52;;
63089;SDS011;49174;43.198;27.824;2022-10-29T17:49:05;15.13;;;10.52;;
63089;SDS011;49174;43.198;27.824;2022-10-29T17:51:30;15.70;;;9.75;;
63089;SDS011;49174;43.198;27.824;2022-10-29T17:53:56;13.40;;;10.73;;
63089;SDS011;49174;43.198;27.824;2022-10-29T17:56:22;18.17;;;12.07;;
63089;SDS011;49174;43.198;27.824;2022-10-29T17:58:47;13.23;;;10.20;;
63089;SDS011;49174;43.198;27.824;2022-10-29T18:01:13;14.20;;;10.13;;
63089;SDS011;49174;43.198;27.824;2022-10-29T18:03:39;12.40;;;10.30;;
63089;SDS011;49174;43.198;27.824;2022-10-29T18:06:06;13.88;;;10.65;;
63089;SDS011;49174;43.198;27.824;2022-10-29T18:08:36;14.45;;;10.52;;
63089;SDS011;49174;43.198;27.824;2022-10-29T18:11:07;11.88;;;10.00;;
63089;SDS011;49174;43.198;27.824;2022-10-29T18:13:36;15.95;;;9.50;;
63089;SDS011;49174;43.198;27.824;2022-10-29T18:16:06;12.85;;;10.32;;
63089;SDS011;49174;43.198;27.824;2022-10-29T18:18:45;12.45;;;10.15;;
63089;SDS011;49174;43.198;27.824;2022-10-29T18:21:13;14.10;;;9.98;;
63089;SDS011;49174;43.198;27.824;2022-10-29T18:23:41;11.82;;;9.20;;
63089;SDS011;49174;43.198;27.824;2022-10-29T18:26:27;13.82;;;9.60;;
63089;SDS011;49174;43.198;27.824;2022-10-29T18:28:55;12.27;;;9.48;;
63089;SDS011;49174;43.198;27.824;2022-10-29T18:31:23;12.55;;;9.30;;
63089;SDS011;49174;43.198;27.824;2022-10-29T18:33:52;13.13;;;9.30;;
63089;SDS011;49174;43.198;27.824;2022-10-29T18:36:19;11.65;;;8.93;;
63089;SDS011;49174;43.198;27.824;2022-10-29T18:38:51;12.73;;;10.05;;
63089;SDS011;49174;43.198;27.824;2022-10-29T18:41:18;16.35;;;11.38;;
63089;SDS011;49174;43.198;27.824;2022-10-29T18:43:44;13.88;;;10.45;;
63089;SDS011;49174;43.198;27.824;2022-10-29T18:46:10;14.98;;;11.65;;
63089;SDS011;49174;43.198;27.824;2022-10-29T18:48:36;15.90;;;12.38;;
63089;SDS011;49174;43.198;27.824;2022-10-29T18:51:04;17.27;;;12.85;;
63089;SDS011;49174;43.198;27.824;2022-10-29T18:53:33;15.40;;;12.20;;
63089;SDS011;49174;43.198;27.824;2022-10-29T18:56:00;14.55;;;11.40;;
63089;SDS011;49174;43.198;27.824;2022-10-29T18:58:26;14.82;;;11.65;;
63089;SDS011;49174;43.198;27.824;2022-10-29T19:00:52;16.13;;;11.68;;
63089;SDS011;49174;43.198;27.824;2022-10-29T19:03:17;13.88;;;12.07;;
63089;SDS011;49174;43.198;27.824;2022-10-29T19:05:43;14.77;;;11.25;;
63089;SDS011;49174;43.198;27.824;2022-10-29T19:08:10;14.10;;;11.48;;
63089;SDS011;49174;43.198;27.824;2022-10-29T19:10:37;14.63;;;12.20;;
63089;SDS011;49174;43.198;27.824;2022-10-29T19:13:04;14.52;;;11.18;;
63089;SDS011;49174;43.198;27.824;2022-10-29T19:15:31;17.23;;;12.30;;
63089;SDS011;49174;43.198;27.824;2022-10-29T19:17:57;15.73;;;11.63;;
63089;SDS011;49174;43.198;27.824;2022-10-29T19:20:23;15.50;;;12.00;;
63089;SDS011;49174;43.198;27.824;2022-10-29T19:22:49;15.15;;;11.80;;
63089;SDS011;49174;43.198;27.824;2022-10-29T19:25:14;13.90;;;10.70;;
63089;SDS011;49174;43.198;27.824;2022-10-29T19:27:40;13.75;;;11.20;;
63089;SDS011;49174;43.198;27.824;2022-10-29T19:30:05;14.95;;;11.77;;
63089;SDS011;49174;43.198;27.824;2022-10-29T19:32:32;15.20;;;11.77;;
63089;SDS011;49174;43.198;27.824;2022-10-29T19:34:57;14.23;;;11.77;;
63089;SDS011;49174;43.198;27.824;2022-10-29T19:37:22;13.55;;;11.20;;
63089;SDS011;49174;43.198;27.824;2022-10-29T19:39:48;15.52;;;11.15;;
63089;SDS011;49174;43.198;27.824;2022-10-29T19:42:14;14.32;;;11.13;;
63089;SDS011;49174;43.198;27.824;2022-10-29T19:44:40;14.57;;;11.70;;
63089;SDS011;49174;43.198;27.824;2022-10-29T19:47:06;15.30;;;12.60;;
63089;SDS011;49174;43.198;27.824;2022-10-29T19:49:31;19.65;;;14.15;;
63089;SDS011;49174;43.198;27.824;2022-10-29T19:51:57;16.63;;;13.35;;
63089;SDS011;49174;43.198;27.824;2022-10-29T19:54:23;16.70;;;12.23;;
63089;SDS011;49174;43.198;27.824;2022-10-29T19:56:49;17.67;;;13.27;;
63089;SDS011;49174;43.198;27.824;2022-10-29T19:59:15;19.05;;;12.93;;
63089;SDS011;49174;43.198;27.824;2022-10-29T20:01:41;13.98;;;11.85;;
63089;SDS011;49174;43.198;27.824;2022-10-29T20:04:08;13.55;;;11.57;;
63089;SDS011;49174;43.198;27.824;2022-10-29T20:06:34;16.05;;;12.40;;
63089;SDS011;49174;43.198;27.824;2022-10-29T20:09:00;14.40;;;12.70;;